sensor_id;sensor_type;location;lat;lon;timestamp;temperature;humidity
19224;DHT22;9746;47.180;9.776;2023-06-04T03:31:21;13.50;99.90
19224;DHT22;9746;47.180;9.776;2023-06-04T03:33:48;13.40;99.90
19224;DHT22;9746;47.180;9.776;2023-06-04T03:36:15;13.30;99.90
19224;DHT22;9746;47.180;9.776;2023-06-04T03:38:45;13.20;99.90
19224;DHT22;9746;47.180;9.776;2023-06-04T03:41:13;13.20;99.90
19224;DHT22;9746;47.180;9.776;2023-06-04T03:43:41;13.30;99.90
19224;DHT22;9746;47.180;9.776;2023-06-04T03:46:08;13.30;99.90
19224;DHT22;9746;47.180;9.776;2023-06-04T03:48:38;13.40;99.90
19224;DHT22;9746;47.180;9.776;2023-06-04T03:51:06;13.40;99.90
19224;DHT22;9746;47.180;9.776;2023-06-04T03:53:33;13.40;99.90
19224;DHT22;9746;47.180;9.776;2023-06-04T03:56:00;13.50;99.90
19224;DHT22;9746;47.180;9.776;2023-06-04T03:58:28;13.40;99.90
19224;DHT22;9746;47.180;9.776;2023-06-04T04:00:56;13.50;99.90
19224;DHT22;9746;47.180;9.776;2023-06-04T04:03:24;13.50;99.90
19224;DHT22;9746;47.180;9.776;2023-06-04T04:05:52;13.50;99.90
19224;DHT22;9746;47.180;9.776;2023-06-04T04:08:20;13.50;99.90
19224;DHT22;9746;47.180;9.776;2023-06-04T04:10:48;13.60;99.90
19224;DHT22;9746;47.180;9.776;2023-06-04T04:13:15;13.60;99.90
19224;DHT22;9746;47.180;9.776;2023-06-04T04:15:43;13.60;99.90
19224;DHT22;9746;47.180;9.776;2023-06-04T04:18:11;13.60;99.90
19224;DHT22;9746;47.180;9.776;2023-06-04T04:20:39;13.60;99.90
19224;DHT22;9746;47.180;9.776;2023-06-04T04:23:08;13.60;99.90
19224;DHT22;9746;47.180;9.776;2023-06-04T04:25:35;13.60;99.90
19224;DHT22;9746;47.180;9.776;2023-06-04T04:28:04;13.60;99.90
19224;DHT22;9746;47.180;9.776;2023-06-04T04:30:34;13.60;99.90
19224;DHT22;9746;47.180;9.776;2023-06-04T04:33:02;13.60;99.90
19224;DHT22;9746;47.180;9.776;2023-06-04T04:35:31;13.70;99.90
19224;DHT22;9746;47.180;9.776;2023-06-04T04:38:00;13.80;99.90
19224;DHT22;9746;47.180;9.776;2023-06-04T04:40:31;13.80;99.90
19224;DHT22;9746;47.180;9.776;2023-06-04T04:42:59;13.80;99.90
19224;DHT22;9746;47.180;9.776;2023-06-04T04:45:27;13.80;99.90
19224;DHT22;9746;47.180;9.776;2023-06-04T04:47:55;13.80;99.90
19224;DHT22;9746;47.180;9.776;2023-06-04T04:50:22;13.90;99.90
19224;DHT22;9746;47.180;9.776;2023-06-04T04:52:50;14.00;99.90
19224;DHT22;9746;47.180;9.776;2023-06-04T04:55:17;14.00;99.90
19224;DHT22;9746;47.180;9.776;2023-06-04T04:57:47;14.10;99.90
19224;DHT22;9746;47.180;9.776;2023-06-04T05:00:16;14.20;99.90
19224;DHT22;9746;47.180;9.776;2023-06-04T05:02:44;14.20;99.90
19224;DHT22;9746;47.180;9.776;2023-06-04T05:05:12;14.30;99.90
19224;DHT22;9746;47.180;9.776;2023-06-04T05:07:39;14.30;99.90
19224;DHT22;9746;47.180;9.776;2023-06-04T05:10:08;14.40;99.90
19224;DHT22;9746;47.180;9.776;2023-06-04T05:12:35;14.40;99.90
19224;DHT22;9746;47.180;9.776;2023-06-04T05:15:07;14.50;99.90
19224;DHT22;9746;47.180;9.776;2023-06-04T05:17:38;14.50;99.90
19224;DHT22;9746;47.180;9.776;2023-06-04T05:20:06;14.60;99.90
19224;DHT22;9746;47.180;9.776;2023-06-04T05:22:37;14.70;99.90
19224;DHT22;9746;47.180;9.776;2023-06-04T05:25:05;14.70;99.90
19224;DHT22;9746;47.180;9.776;2023-06-04T05:27:34;14.80;99.90
19224;DHT22;9746;47.180;9.776;2023-06-04T05:30:03;14.90;99.90
19224;DHT22;9746;47.180;9.776;2023-06-04T05:32:32;15.00;99.90
19224;DHT22;9746;47.180;9.776;2023-06-04T05:35:02;15.20;99.90
19224;DHT22;9746;47.180;9.776;2023-06-04T05:37:31;15.40;99.90
19224;DHT22;9746;47.180;9.776;2023-06-04T05:40:00;15.50;99.90
19224;DHT22;9746;47.180;9.776;2023-06-04T05:42:29;15.70;99.90
19224;DHT22;9746;47.180;9.776;2023-06-04T05:44:56;15.90;99.90
19224;DHT22;9746;47.180;9.776;2023-06-04T05:47:24;16.10;99.90
19224;DHT22;9746;47.180;9.776;2023-06-04T05:49:53;16.20;99.90
19224;DHT22;9746;47.180;9.776;2023-06-04T05:52:20;16.40;99.90
19224;DHT22;9746;47.180;9.776;2023-06-04T05:54:48;16.60;99.90
19224;DHT22;9746;47.180;9.776;2023-06-04T05:57:16;16.70;99.90
19224;DHT22;9746;47.180;9.776;2023-06-04T05:59:43;16.70;99.90
19224;DHT22;9746;47.180;9.776;2023-06-04T06:02:10;16.80;99.90
19224;DHT22;9746;47.180;9.776;2023-06-04T06:04:38;16.90;99.90
19224;DHT22;9746;47.180;9.776;2023-06-04T06:07:08;17.10;99.90
19224;DHT22;9746;47.180;9.776;2023-06-04T06:09:36;17.20;99.90
19224;DHT22;9746;47.180;9.776;2023-06-04T06:12:04;17.40;99.90
19224;DHT22;9746;47.180;9.776;2023-06-04T06:14:32;17.60;99.90
19224;DHT22;9746;47.180;9.776;2023-06-04T06:17:00;17.80;99.90
19224;DHT22;9746;47.180;9.776;2023-06-04T06:19:29;17.90;99.90
19224;DHT22;9746;47.180;9.776;2023-06-04T06:21:57;18.00;99.90
19224;DHT22;9746;47.180;9.776;2023-06-04T06:24:27;18.10;99.90
19224;DHT22;9746;47.180;9.776;2023-06-04T06:26:54;18.20;99.90
19224;DHT22;9746;47.180;9.776;2023-06-04T06:29:22;18.30;99.90
19224;DHT22;9746;47.180;9.776;2023-06-04T06:31:50;18.50;99.90
19224;DHT22;9746;47.180;9.776;2023-06-04T06:34:18;18.60;99.90
19224;DHT22;9746;47.180;9.776;2023-06-04T06:36:45;18.70;99.90
19224;DHT22;9746;47.180;9.776;2023-06-04T06:39:14;18.90;99.90
19224;DHT22;9746;47.180;9.776;2023-06-04T06:41:43;19.00;99.90
19224;DHT22;9746;47.180;9.776;2023-06-04T06:44:10;19.20;99.90
19224;DHT22;9746;47.180;9.776;2023-06-04T06:46:38;19.40;99.90
19224;DHT22;9746;47.180;9.776;2023-06-04T06:49:06;19.50;99.90
19224;DHT22;9746;47.180;9.776;2023-06-04T06:51:34;19.60;99.90
19224;DHT22;9746;47.180;9.776;2023-06-04T06:54:01;19.80;99.90
19224;DHT22;9746;47.180;9.776;2023-06-04T06:56:28;19.90;99.90
19224;DHT22;9746;47.180;9.776;2023-06-04T06:58:58;20.00;99.90
19224;DHT22;9746;47.180;9.776;2023-06-04T07:01:25;20.20;99.90
19224;DHT22;9746;47.180;9.776;2023-06-04T07:03:53;20.20;99.90
19224;DHT22;9746;47.180;9.776;2023-06-04T07:06:20;20.30;99.90
19224;DHT22;9746;47.180;9.776;2023-06-04T07:08:48;20.50;99.90
19224;DHT22;9746;47.180;9.776;2023-06-04T07:11:16;20.60;99.90
19224;DHT22;9746;47.180;9.776;2023-06-04T07:13:43;20.80;99.90
19224;DHT22;9746;47.180;9.776;2023-06-04T07:16:12;20.90;99.90
19224;DHT22;9746;47.180;9.776;2023-06-04T07:18:40;21.00;99.90
19224;DHT22;9746;47.180;9.776;2023-06-04T07:21:07;21.20;99.90
19224;DHT22;9746;47.180;9.776;2023-06-04T07:23:35;21.30;99.90
19224;DHT22;9746;47.180;9.776;2023-06-04T07:26:02;21.40;99.90
19224;DHT22;9746;47.180;9.776;2023-06-04T07:28:29;21.40;99.90
19224;DHT22;9746;47.180;9.776;2023-06-04T07:30:57;21.50;99.90
19224;DHT22;9746;47.180;9.776;2023-06-04T07:33:26;21.50;99.90
19224;DHT22;9746;47.180;9.776;2023-06-04T07:35:54;21.60;99.90
19224;DHT22;9746;47.180;9.776;2023-06-04T07:38:22;21.70;99.90
19224;DHT22;9746;47.180;9.776;2023-06-04T07:40:49;21.80;99.90
19224;DHT22;9746;47.180;9.776;2023-06-04T07:43:17;21.90;99.90
19224;DHT22;9746;47.180;9.776;2023-06-04T07:45:44;21.90;99.90
19224;DHT22;9746;47.180;9.776;2023-06-04T07:48:12;22.00;99.90
19224;DHT22;9746;47.180;9.776;2023-06-04T07:50:40;22.10;99.90
19224;DHT22;9746;47.180;9.776;2023-06-04T07:53:08;22.10;99.90
19224;DHT22;9746;47.180;9.776;2023-06-04T07:55:36;22.10;99.90
19224;DHT22;9746;47.180;9.776;2023-06-04T07:58:03;22.10;99.90
19224;DHT22;9746;47.180;9.776;2023-06-04T08:00:31;22.20;99.90
19224;DHT22;9746;47.180;9.776;2023-06-04T08:02:58;22.30;99.90
19224;DHT22;9746;47.180;9.776;2023-06-04T08:05:26;22.40;99.90
19224;DHT22;9746;47.180;9.776;2023-06-04T08:07:55;22.50;99.90
19224;DHT22;9746;47.180;9.776;2023-06-04T08:10:23;22.80;99.90
19224;DHT22;9746;47.180;9.776;2023-06-04T08:12:50;23.00;99.90
19224;DHT22;9746;47.180;9.776;2023-06-04T08:15:18;23.20;99.90
19224;DHT22;9746;47.180;9.776;2023-06-04T08:17:45;23.40;99.90
19224;DHT22;9746;47.180;9.776;2023-06-04T08:20:13;23.60;99.90
19224;DHT22;9746;47.180;9.776;2023-06-04T08:22:40;23.70;99.90
19224;DHT22;9746;47.180;9.776;2023-06-04T08:25:09;23.90;99.90
19224;DHT22;9746;47.180;9.776;2023-06-04T08:27:38;24.00;99.90
19224;DHT22;9746;47.180;9.776;2023-06-04T08:30:08;24.20;99.90
19224;DHT22;9746;47.180;9.776;2023-06-04T08:32:36;24.30;99.90
19224;DHT22;9746;47.180;9.776;2023-06-04T08:35:04;24.40;99.90
19224;DHT22;9746;47.180;9.776;2023-06-04T08:37:32;24.50;99.90
19224;DHT22;9746;47.180;9.776;2023-06-04T08:40:00;24.60;99.90
19224;DHT22;9746;47.180;9.776;2023-06-04T08:42:31;24.70;99.90
19224;DHT22;9746;47.180;9.776;2023-06-04T08:44:59;24.70;99.90
19224;DHT22;9746;47.180;9.776;2023-06-04T08:47:29;24.70;99.90
19224;DHT22;9746;47.180;9.776;2023-06-04T08:50:00;24.80;99.90
19224;DHT22;9746;47.180;9.776;2023-06-04T08:52:30;24.90;99.90
19224;DHT22;9746;47.180;9.776;2023-06-04T08:54:58;25.00;99.90
19224;DHT22;9746;47.180;9.776;2023-06-04T08:57:27;25.10;99.90
19224;DHT22;9746;47.180;9.776;2023-06-04T08:59:56;25.10;99.90
19224;DHT22;9746;47.180;9.776;2023-06-04T09:02:27;25.20;99.90
19224;DHT22;9746;47.180;9.776;2023-06-04T09:04:55;25.30;99.90
19224;DHT22;9746;47.180;9.776;2023-06-04T09:07:23;25.40;99.90
19224;DHT22;9746;47.180;9.776;2023-06-04T09:09:52;25.40;99.90
19224;DHT22;9746;47.180;9.776;2023-06-04T09:12:23;25.50;99.90
19224;DHT22;9746;47.180;9.776;2023-06-04T09:14:51;25.60;99.90
19224;DHT22;9746;47.180;9.776;2023-06-04T09:17:23;25.70;99.90
19224;DHT22;9746;47.180;9.776;2023-06-04T09:19:55;25.90;99.90
19224;DHT22;9746;47.180;9.776;2023-06-04T09:22:32;26.10;99.90
19224;DHT22;9746;47.180;9.776;2023-06-04T09:25:02;26.20;99.90
19224;DHT22;9746;47.180;9.776;2023-06-04T09:27:38;26.20;99.90
19224;DHT22;9746;47.180;9.776;2023-06-04T09:30:08;26.40;99.90
19224;DHT22;9746;47.180;9.776;2023-06-04T09:32:37;26.40;99.90
19224;DHT22;9746;47.180;9.776;2023-06-04T09:35:12;26.50;99.90
19224;DHT22;9746;47.180;9.776;2023-06-04T09:37:41;26.50;99.90
19224;DHT22;9746;47.180;9.776;2023-06-04T09:40:09;26.60;99.90
19224;DHT22;9746;47.180;9.776;2023-06-04T09:42:44;26.80;99.90
19224;DHT22;9746;47.180;9.776;2023-06-04T09:45:11;26.90;99.90
19224;DHT22;9746;47.180;9.776;2023-06-04T09:47:41;27.00;99.90
19224;DHT22;9746;47.180;9.776;2023-06-04T09:50:10;27.10;99.90
19224;DHT22;9746;47.180;9.776;2023-06-04T09:52:38;27.10;99.90
19224;DHT22;9746;47.180;9.776;2023-06-04T09:55:16;27.10;99.90
19224;DHT22;9746;47.180;9.776;2023-06-04T09:57:47;27.00;99.90
19224;DHT22;9746;47.180;9.776;2023-06-04T10:00:17;27.10;99.90
19224;DHT22;9746;47.180;9.776;2023-06-04T10:02:48;27.10;99.90
19224;DHT22;9746;47.180;9.776;2023-06-04T10:05:17;27.30;99.90
19224;DHT22;9746;47.180;9.776;2023-06-04T10:07:51;27.40;99.90
19224;DHT22;9746;47.180;9.776;2023-06-04T10:10:21;27.40;99.90
19224;DHT22;9746;47.180;9.776;2023-06-04T10:12:54;27.50;99.90
19224;DHT22;9746;47.180;9.776;2023-06-04T10:15:24;27.60;99.90
19224;DHT22;9746;47.180;9.776;2023-06-04T10:17:54;27.70;99.90
19224;DHT22;9746;47.180;9.776;2023-06-04T10:20:23;27.90;99.90
19224;DHT22;9746;47.180;9.776;2023-06-04T10:22:51;28.00;99.90
19224;DHT22;9746;47.180;9.776;2023-06-04T10:25:19;28.00;99.90
19224;DHT22;9746;47.180;9.776;2023-06-04T10:27:48;28.10;99.90
19224;DHT22;9746;47.180;9.776;2023-06-04T10:30:18;28.30;99.90
19224;DHT22;9746;47.180;9.776;2023-06-04T10:32:46;28.50;99.90
19224;DHT22;9746;47.180;9.776;2023-06-04T10:35:16;28.80;99.90
19224;DHT22;9746;47.180;9.776;2023-06-04T10:37:44;29.00;99.90
19224;DHT22;9746;47.180;9.776;2023-06-04T10:40:13;29.00;99.90
19224;DHT22;9746;47.180;9.776;2023-06-04T10:42:42;28.90;99.90
19224;DHT22;9746;47.180;9.776;2023-06-04T10:45:11;29.00;99.90
19224;DHT22;9746;47.180;9.776;2023-06-04T10:47:38;28.80;99.90
19224;DHT22;9746;47.180;9.776;2023-06-04T10:50:08;28.70;99.90
19224;DHT22;9746;47.180;9.776;2023-06-04T10:52:50;28.70;99.90
19224;DHT22;9746;47.180;9.776;2023-06-04T10:55:17;28.70;99.90
19224;DHT22;9746;47.180;9.776;2023-06-04T10:57:52;28.60;99.90
19224;DHT22;9746;47.180;9.776;2023-06-04T11:00:20;28.60;99.90
19224;DHT22;9746;47.180;9.776;2023-06-04T11:02:52;28.50;99.90
19224;DHT22;9746;47.180;9.776;2023-06-04T11:05:21;28.30;99.90
19224;DHT22;9746;47.180;9.776;2023-06-04T11:07:50;28.20;99.90
19224;DHT22;9746;47.180;9.776;2023-06-04T11:10:18;28.20;99.90
19224;DHT22;9746;47.180;9.776;2023-06-04T11:12:46;27.70;99.90
19224;DHT22;9746;47.180;9.776;2023-06-04T11:15:14;27.30;99.90
19224;DHT22;9746;47.180;9.776;2023-06-04T11:17:51;27.20;99.90
19224;DHT22;9746;47.180;9.776;2023-06-04T11:20:20;27.20;99.90
19224;DHT22;9746;47.180;9.776;2023-06-04T11:22:54;27.10;99.90
19224;DHT22;9746;47.180;9.776;2023-06-04T11:25:22;26.90;99.90
19224;DHT22;9746;47.180;9.776;2023-06-04T11:27:52;26.60;99.90
19224;DHT22;9746;47.180;9.776;2023-06-04T11:30:21;26.50;99.90
19224;DHT22;9746;47.180;9.776;2023-06-04T11:32:49;26.20;99.90
19224;DHT22;9746;47.180;9.776;2023-06-04T11:35:16;26.10;99.90
19224;DHT22;9746;47.180;9.776;2023-06-04T11:37:55;26.00;99.90
19224;DHT22;9746;47.180;9.776;2023-06-04T11:40:23;26.00;99.90
19224;DHT22;9746;47.180;9.776;2023-06-04T11:42:52;25.90;99.90
19224;DHT22;9746;47.180;9.776;2023-06-04T11:45:21;25.80;99.90
19224;DHT22;9746;47.180;9.776;2023-06-04T11:47:53;25.60;99.90
19224;DHT22;9746;47.180;9.776;2023-06-04T11:50:23;25.60;99.90
19224;DHT22;9746;47.180;9.776;2023-06-04T11:52:55;25.60;99.90
19224;DHT22;9746;47.180;9.776;2023-06-04T11:55:23;25.60;99.90
19224;DHT22;9746;47.180;9.776;2023-06-04T11:57:52;25.40;99.90
19224;DHT22;9746;47.180;9.776;2023-06-04T12:00:20;25.40;99.90
19224;DHT22;9746;47.180;9.776;2023-06-04T12:02:51;25.30;99.90
19224;DHT22;9746;47.180;9.776;2023-06-04T12:05:20;25.30;99.90
19224;DHT22;9746;47.180;9.776;2023-06-04T12:07:50;25.20;99.90
19224;DHT22;9746;47.180;9.776;2023-06-04T12:10:20;25.10;99.90
19224;DHT22;9746;47.180;9.776;2023-06-04T12:12:54;24.80;99.90
19224;DHT22;9746;47.180;9.776;2023-06-04T12:15:22;24.60;99.90
19224;DHT22;9746;47.180;9.776;2023-06-04T12:17:50;24.40;99.90
19224;DHT22;9746;47.180;9.776;2023-06-04T12:20:18;23.80;99.90
19224;DHT22;9746;47.180;9.776;2023-06-04T12:22:46;22.60;99.90
19224;DHT22;9746;47.180;9.776;2023-06-04T12:25:26;22.20;99.90
19224;DHT22;9746;47.180;9.776;2023-06-04T12:27:54;22.00;99.90
19224;DHT22;9746;47.180;9.776;2023-06-04T12:30:22;21.70;99.90
19224;DHT22;9746;47.180;9.776;2023-06-04T12:32:50;21.50;99.90
19224;DHT22;9746;47.180;9.776;2023-06-04T12:35:19;21.40;99.90
19224;DHT22;9746;47.180;9.776;2023-06-04T12:37:46;21.30;99.90
19224;DHT22;9746;47.180;9.776;2023-06-04T12:40:14;21.20;99.90
19224;DHT22;9746;47.180;9.776;2023-06-04T12:42:43;21.00;99.90
19224;DHT22;9746;47.180;9.776;2023-06-04T12:45:12;21.00;99.90
19224;DHT22;9746;47.180;9.776;2023-06-04T12:47:40;21.00;99.90
19224;DHT22;9746;47.180;9.776;2023-06-04T12:50:09;20.90;99.90
19224;DHT22;9746;47.180;9.776;2023-06-04T12:52:37;20.80;99.90
19224;DHT22;9746;47.180;9.776;2023-06-04T12:55:05;20.60;99.90
19224;DHT22;9746;47.180;9.776;2023-06-04T12:57:33;20.40;99.90
19224;DHT22;9746;47.180;9.776;2023-06-04T13:00:03;20.20;99.90
19224;DHT22;9746;47.180;9.776;2023-06-04T13:02:30;19.90;99.90
19224;DHT22;9746;47.180;9.776;2023-06-04T13:04:58;19.60;99.90
19224;DHT22;9746;47.180;9.776;2023-06-04T13:07:26;19.50;99.90
19224;DHT22;9746;47.180;9.776;2023-06-04T13:09:59;19.40;99.90
19224;DHT22;9746;47.180;9.776;2023-06-04T13:12:27;19.20;99.90
19224;DHT22;9746;47.180;9.776;2023-06-04T13:14:55;19.20;99.90
19224;DHT22;9746;47.180;9.776;2023-06-04T13:17:24;19.20;99.90
19224;DHT22;9746;47.180;9.776;2023-06-04T13:19:52;19.30;99.90
19224;DHT22;9746;47.180;9.776;2023-06-04T13:22:20;19.40;99.90
19224;DHT22;9746;47.180;9.776;2023-06-04T13:24:47;19.50;99.90
19224;DHT22;9746;47.180;9.776;2023-06-04T13:27:15;19.50;99.90
19224;DHT22;9746;47.180;9.776;2023-06-04T13:29:42;19.50;99.90
19224;DHT22;9746;47.180;9.776;2023-06-04T13:32:10;19.40;99.90
19224;DHT22;9746;47.180;9.776;2023-06-04T13:34:39;19.40;99.90
19224;DHT22;9746;47.180;9.776;2023-06-04T13:37:06;19.40;99.90
19224;DHT22;9746;47.180;9.776;2023-06-04T13:39:36;19.10;99.90
19224;DHT22;9746;47.180;9.776;2023-06-04T13:42:04;19.00;99.90
19224;DHT22;9746;47.180;9.776;2023-06-04T13:44:31;18.80;99.90
19224;DHT22;9746;47.180;9.776;2023-06-04T13:46:59;18.90;99.90
19224;DHT22;9746;47.180;9.776;2023-06-04T13:49:27;19.00;99.90
19224;DHT22;9746;47.180;9.776;2023-06-04T13:51:56;19.00;99.90
19224;DHT22;9746;47.180;9.776;2023-06-04T13:54:24;19.10;99.90
19224;DHT22;9746;47.180;9.776;2023-06-04T13:56:52;19.10;99.90
19224;DHT22;9746;47.180;9.776;2023-06-04T13:59:19;19.20;99.90
19224;DHT22;9746;47.180;9.776;2023-06-04T14:01:47;19.20;99.90
19224;DHT22;9746;47.180;9.776;2023-06-04T14:04:15;19.30;99.90
19224;DHT22;9746;47.180;9.776;2023-06-04T14:06:43;19.40;99.90
19224;DHT22;9746;47.180;9.776;2023-06-04T14:09:14;19.40;99.90
19224;DHT22;9746;47.180;9.776;2023-06-04T14:11:42;19.50;99.90
19224;DHT22;9746;47.180;9.776;2023-06-04T14:14:09;19.40;99.90
19224;DHT22;9746;47.180;9.776;2023-06-04T14:16:38;19.50;99.90
19224;DHT22;9746;47.180;9.776;2023-06-04T14:19:06;19.50;99.90
19224;DHT22;9746;47.180;9.776;2023-06-04T14:21:34;19.50;99.90
19224;DHT22;9746;47.180;9.776;2023-06-04T14:29:35;19.50;99.90
19224;DHT22;9746;47.180;9.776;2023-06-04T14:32:35;19.50;99.90
19224;DHT22;9746;47.180;9.776;2023-06-04T14:35:44;19.60;99.90
19224;DHT22;9746;47.180;9.776;2023-06-04T14:38:33;19.70;99.90
19224;DHT22;9746;47.180;9.776;2023-06-04T14:41:07;19.80;99.90
19224;DHT22;9746;47.180;9.776;2023-06-04T14:43:35;19.90;99.90
19224;DHT22;9746;47.180;9.776;2023-06-04T14:46:05;20.00;99.90
19224;DHT22;9746;47.180;9.776;2023-06-04T14:48:32;20.10;99.90
19224;DHT22;9746;47.180;9.776;2023-06-04T14:51:01;20.10;99.90
19224;DHT22;9746;47.180;9.776;2023-06-04T14:53:28;20.20;99.90
19224;DHT22;9746;47.180;9.776;2023-06-04T14:55:58;20.10;99.90
19224;DHT22;9746;47.180;9.776;2023-06-04T14:58:25;20.10;99.90
19224;DHT22;9746;47.180;9.776;2023-06-04T15:00:53;20.10;99.90
19224;DHT22;9746;47.180;9.776;2023-06-04T15:03:25;20.20;99.90
19224;DHT22;9746;47.180;9.776;2023-06-04T15:05:53;20.20;99.90
19224;DHT22;9746;47.180;9.776;2023-06-04T15:08:20;20.30;99.90
19224;DHT22;9746;47.180;9.776;2023-06-04T15:11:09;20.20;99.90
19224;DHT22;9746;47.180;9.776;2023-06-04T15:13:37;20.20;99.90
19224;DHT22;9746;47.180;9.776;2023-06-04T15:16:06;20.20;99.90
19224;DHT22;9746;47.180;9.776;2023-06-04T15:18:35;20.20;99.90
19224;DHT22;9746;47.180;9.776;2023-06-04T15:24:24;20.20;99.90
19224;DHT22;9746;47.180;9.776;2023-06-04T15:26:53;20.30;99.90
19224;DHT22;9746;47.180;9.776;2023-06-04T15:29:21;20.30;99.90
19224;DHT22;9746;47.180;9.776;2023-06-04T15:32:01;20.30;99.90
19224;DHT22;9746;47.180;9.776;2023-06-04T15:34:30;20.20;99.90
19224;DHT22;9746;47.180;9.776;2023-06-04T15:40:19;20.20;99.90
19224;DHT22;9746;47.180;9.776;2023-06-04T15:42:50;20.20;99.90
19224;DHT22;9746;47.180;9.776;2023-06-04T15:45:17;20.30;99.90
19224;DHT22;9746;47.180;9.776;2023-06-04T15:47:50;20.30;99.90
19224;DHT22;9746;47.180;9.776;2023-06-04T15:50:19;20.50;99.90
19224;DHT22;9746;47.180;9.776;2023-06-04T15:56:08;20.70;99.90
19224;DHT22;9746;47.180;9.776;2023-06-04T15:58:35;20.90;99.90
19224;DHT22;9746;47.180;9.776;2023-06-04T16:01:05;20.90;99.90
19224;DHT22;9746;47.180;9.776;2023-06-04T16:03:33;21.10;99.90
19224;DHT22;9746;47.180;9.776;2023-06-04T16:06:07;21.20;99.90
19224;DHT22;9746;47.180;9.776;2023-06-04T16:09:04;21.20;99.90
19224;DHT22;9746;47.180;9.776;2023-06-04T16:11:37;21.20;99.90
19224;DHT22;9746;47.180;9.776;2023-06-04T16:14:05;21.20;99.90
19224;DHT22;9746;47.180;9.776;2023-06-04T16:17:03;21.20;99.90
19224;DHT22;9746;47.180;9.776;2023-06-04T16:19:31;21.20;99.90
19224;DHT22;9746;47.180;9.776;2023-06-04T16:22:13;21.20;99.90
19224;DHT22;9746;47.180;9.776;2023-06-04T16:24:40;21.20;99.90
19224;DHT22;9746;47.180;9.776;2023-06-04T16:27:28;21.20;99.90
19224;DHT22;9746;47.180;9.776;2023-06-04T16:29:55;21.10;99.90
19224;DHT22;9746;47.180;9.776;2023-06-04T16:32:36;21.00;99.90
19224;DHT22;9746;47.180;9.776;2023-06-04T16:35:04;21.00;99.90
19224;DHT22;9746;47.180;9.776;2023-06-04T16:40:54;20.80;99.90
19224;DHT22;9746;47.180;9.776;2023-06-04T16:43:22;20.70;99.90
19224;DHT22;9746;47.180;9.776;2023-06-04T16:49:11;20.60;99.90
19224;DHT22;9746;47.180;9.776;2023-06-04T16:55:29;20.50;99.90
19224;DHT22;9746;47.180;9.776;2023-06-04T17:01:21;20.60;99.90
19224;DHT22;9746;47.180;9.776;2023-06-04T17:03:49;20.70;99.90
19224;DHT22;9746;47.180;9.776;2023-06-04T17:09:39;20.80;99.90
19224;DHT22;9746;47.180;9.776;2023-06-04T17:15:29;20.80;99.90
19224;DHT22;9746;47.180;9.776;2023-06-04T17:21:20;20.90;99.90
19224;DHT22;9746;47.180;9.776;2023-06-04T17:23:47;20.70;99.90
19224;DHT22;9746;47.180;9.776;2023-06-04T17:29:37;20.70;99.90
19224;DHT22;9746;47.180;9.776;2023-06-04T17:32:23;20.70;99.90
19224;DHT22;9746;47.180;9.776;2023-06-04T17:34:50;20.60;99.90
19224;DHT22;9746;47.180;9.776;2023-06-04T17:37:29;20.60;99.90
19224;DHT22;9746;47.180;9.776;2023-06-04T17:39:58;20.60;99.90
19224;DHT22;9746;47.180;9.776;2023-06-04T17:45:42;20.30;99.90
19224;DHT22;9746;47.180;9.776;2023-06-04T17:51:32;20.10;99.90
19224;DHT22;9746;47.180;9.776;2023-06-04T17:54:01;19.90;99.90
19224;DHT22;9746;47.180;9.776;2023-06-04T17:59:50;19.60;99.90
19224;DHT22;9746;47.180;9.776;2023-06-04T18:02:28;19.50;99.90
19224;DHT22;9746;47.180;9.776;2023-06-04T18:04:57;19.50;99.90
19224;DHT22;9746;47.180;9.776;2023-06-04T18:10:24;19.30;99.90
19224;DHT22;9746;47.180;9.776;2023-06-04T18:16:07;19.20;99.90
19224;DHT22;9746;47.180;9.776;2023-06-04T18:21:48;18.80;99.90
19224;DHT22;9746;47.180;9.776;2023-06-04T18:24:18;18.80;99.90
19224;DHT22;9746;47.180;9.776;2023-06-04T18:29:33;18.70;99.90
19224;DHT22;9746;47.180;9.776;2023-06-04T18:32:26;18.60;99.90
19224;DHT22;9746;47.180;9.776;2023-06-04T18:34:54;18.50;99.90
19224;DHT22;9746;47.180;9.776;2023-06-04T18:37:21;18.40;99.90
19224;DHT22;9746;47.180;9.776;2023-06-04T18:39:49;18.40;99.90
19224;DHT22;9746;47.180;9.776;2023-06-04T18:42:50;18.40;99.90
19224;DHT22;9746;47.180;9.776;2023-06-04T18:45:19;18.40;99.90
19224;DHT22;9746;47.180;9.776;2023-06-04T18:50:42;18.20;99.90
19224;DHT22;9746;47.180;9.776;2023-06-04T18:56:33;18.30;99.90
19224;DHT22;9746;47.180;9.776;2023-06-04T18:59:02;18.20;99.90
19224;DHT22;9746;47.180;9.776;2023-06-04T19:01:31;18.20;99.90
19224;DHT22;9746;47.180;9.776;2023-06-04T19:04:07;18.10;99.90
19224;DHT22;9746;47.180;9.776;2023-06-04T19:06:35;18.10;99.90
19224;DHT22;9746;47.180;9.776;2023-06-04T19:09:08;18.10;99.90
19224;DHT22;9746;47.180;9.776;2023-06-04T19:11:41;18.10;99.90
19224;DHT22;9746;47.180;9.776;2023-06-04T19:14:17;18.00;99.90
19224;DHT22;9746;47.180;9.776;2023-06-04T19:16:49;18.00;99.90
19224;DHT22;9746;47.180;9.776;2023-06-04T19:19:19;17.90;99.90
19224;DHT22;9746;47.180;9.776;2023-06-04T19:21:49;17.80;99.90
19224;DHT22;9746;47.180;9.776;2023-06-04T19:24:20;17.70;99.90
19224;DHT22;9746;47.180;9.776;2023-06-04T19:26:48;17.60;99.90
19224;DHT22;9746;47.180;9.776;2023-06-04T19:32:39;17.40;99.90
19224;DHT22;9746;47.180;9.776;2023-06-04T19:35:07;17.40;99.90
19224;DHT22;9746;47.180;9.776;2023-06-04T19:37:42;17.30;99.90
19224;DHT22;9746;47.180;9.776;2023-06-04T19:40:13;17.20;99.90
19224;DHT22;9746;47.180;9.776;2023-06-04T19:43:01;17.10;99.90
19224;DHT22;9746;47.180;9.776;2023-06-04T19:45:29;17.00;99.90
19224;DHT22;9746;47.180;9.776;2023-06-04T19:47:57;16.90;99.90
19224;DHT22;9746;47.180;9.776;2023-06-04T19:50:26;16.80;99.90
19224;DHT22;9746;47.180;9.776;2023-06-04T19:53:05;16.60;99.90
